Date,TemperatureHighF,TemperatureAvgF,TemperatureLowF,DewpointHighF,DewpointAvgF,DewpointLowF,HumidityHigh,HumidityAvg,HumidityLow,PressureMaxIn,PressureMinIn,WindSpeedMaxMPH,WindSpeedAvgMPH,GustSpeedMaxMPH,PrecipitationSumIn
2013-1-1,37,35,34,28,26,21,72,70,54,29.76,29.70,8,3,27,0.00
2013-1-2,25,19,13,15,8,2,65,61,57,30.10,30.00,5,4,16,0.00
2013-1-3,25,17,7,12,2,-4,67,53,29,30.13,29.99,6,1,13,0.00
2013-1-4,40,28,19,26,19,12,82,70,53,29.99,29.80,8,2,24,0.05
2013-1-5,43,34,26,27,23,19,84,65,41,30.25,29.83,7,2,20,0.08
2013-1-6,44,35,27,30,27,22,88,74,58,30.22,29.92,7,1,16,0.00
2013-1-7,40,35,28,31,25,17,90,70,45,30.39,29.94,7,2,15,0.00
2013-1-8,47,37,27,31,29,24,93,73,51,30.36,30.24,9,2,21,0.00
2013-1-9,45,38,28,37,31,25,91,77,57,30.39,29.97,6,2,14,0.00
2013-1-10,48,42,35,30,27,25,69,54,42,30.52,30.01,8,4,22,0.00
2013-1-11,41,36,30,37,30,24,94,78,67,30.51,30.21,3,1,8,0.10
2013-1-12,45,42,39,43,41,37,98,96,94,30.22,30.11,3,0,7,0.02
2013-1-13,53,48,43,51,47,42,99,97,91,30.14,29.97,6,1,14,0.01
2013-1-14,62,53,43,54,44,29,95,75,44,30.23,29.83,6,3,16,0.00
2013-1-15,43,40,36,30,28,26,69,62,56,30.30,30.20,5,1,10,0.00
2013-1-16,36,34,31,33,30,24,95,88,64,30.23,29.81,3,1,7,0.15
2013-1-17,42,36,31,34,29,16,95,78,54,30.08,29.82,5,2,14,0.24
2013-1-18,31,24,19,15,3,-6,53,41,25,30.44,30.05,8,3,16,0.00
2013-1-19,49,38,24,34,24,8,74,57,40,30.38,29.87,10,5,25,0.00
2013-1-20,54,42,30,34,27,12,74,56,36,29.90,29.52,12,5,34,0.00
2013-1-21,30,27,23,14,8,2,56,46,31,30.09,29.90,6,2,17,0.00
2013-1-22,26,22,15,21,11,2,90,64,39,30.07,29.75,7,3,18,0.00
2013-1-23,18,13,9,3,-5,-13,64,45,25,30.13,30.05,6,3,19,0.00
2013-1-24,20,13,4,-4,-8,-14,57,40,20,30.21,30.05,8,3,20,0.00
2013-1-25,25,18,10,14,-5,-11,83,38,20,30.29,30.06,7,2,15,0.00
2013-1-26,26,19,13,14,5,-4,85,58,31,30.22,30.00,7,3,17,0.00
2013-1-27,32,23,14,5,3,-3,64,44,28,30.46,30.22,7,3,16,0.00
2013-1-28,32,26,21,29,14,3,94,62,33,30.44,30.00,4,1,9,0.00
2013-1-29,35,32,27,34,29,25,95,91,85,30.18,30.01,2,1,7,0.13
2013-1-30,62,50,35,58,49,34,98,94,85,30.14,29.45,8,3,32,0.11
2013-1-31,62,49,32,59,39,17,95,70,41,29.57,28.94,12,6,35,0.27
2013-2-1,34,30,24,19,11,6,58,45,34,30.07,29.57,7,4,20,0.01
2013-2-2,31,26,19,14,9,5,57,49,39,30.24,30.04,5,3,13,0.00
2013-2-3,28,26,24,24,21,14,89,83,56,30.04,29.72,4,2,10,0.00
2013-2-4,30,26,22,23,13,7,89,60,40,29.93,29.71,7,3,19,0.00
2013-2-5,30,26,22,25,15,10,91,63,49,30.02,29.92,4,1,11,0.00
2013-2-6,40,32,26,28,21,8,92,68,42,30.28,29.92,6,2,16,0.07
2013-2-7,31,26,20,20,6,1,69,42,31,30.52,30.28,6,2,16,0.00
2013-2-8,34,30,19,32,27,18,97,87,67,30.48,29.58,7,2,17,0.00
2013-2-9,22,19,15,21,17,10,95,91,83,30.17,29.55,9,2,19,0.00
2013-2-10,40,25,12,21,13,7,83,64,25,30.39,30.18,6,1,15,0.31
2013-2-11,45,33,22,44,30,14,98,87,63,30.34,29.59,4,0,9,0.30
2013-2-12,45,40,35,38,31,28,99,72,55,29.86,29.59,6,2,22,0.00
2013-2-13,43,36,29,30,27,24,83,69,53,29.85,29.67,4,1,11,0.00
2013-2-14,45,38,31,30,25,18,83,63,34,29.98,29.68,4,1,12,0.00
2013-2-15,52,40,31,37,33,25,94,76,52,29.99,29.88,6,2,18,0.00
2013-2-16,39,36,32,34,29,20,94,77,57,29.93,29.70,5,2,12,0.02
2013-2-17,32,23,18,22,14,4,91,68,48,29.69,29.37,11,6,27,0.00
2013-2-18,33,24,16,7,4,2,57,43,27,30.14,29.66,9,5,27,0.00
2013-2-19,48,38,25,44,26,6,97,64,43,30.16,29.56,5,2,13,0.36
2013-2-20,43,34,28,42,22,10,97,64,38,29.77,29.51,7,3,22,0.05
2013-2-21,35,29,26,18,16,13,69,58,46,30.16,29.77,10,5,22,0.00
2013-2-22,40,33,26,27,23,18,79,67,49,30.38,30.17,5,2,14,0.00
2013-2-23,39,36,32,34,31,26,96,81,73,30.33,29.91,5,2,10,0.11
2013-2-24,38,35,32,38,34,31,97,96,95,29.91,29.67,7,2,17,0.52
2013-2-25,41,36,31,34,32,29,96,84,67,30.23,29.88,3,1,7,0.18
2013-2-26,44,38,30,36,31,28,96,80,56,30.32,30.15,5,2,13,0.00
2013-2-27,42,40,39,41,39,33,97,94,79,30.15,29.54,10,5,25,1.50
2013-2-28,48,40,35,40,36,34,97,88,71,29.63,29.51,3,1,8,0.00
2013-3-1,42,39,36,37,32,30,92,77,65,29.66,29.51,5,2,12,0.00
2013-3-2,44,39,34,32,29,27,79,69,58,29.66,29.60,6,2,13,0.00
2013-3-3,43,37,34,34,30,27,91,77,67,29.63,29.54,5,2,12,0.00
2013-3-4,42,36,31,30,26,23,84,69,53,29.72,29.55,8,5,22,0.00
2013-3-5,46,38,32,34,30,24,87,71,56,30.05,29.72,6,2,15,0.00
2013-3-6,41,38,36,37,34,31,93,86,70,30.10,30.03,10,5,26,0.11
2013-3-7,37,34,32,33,31,30,94,91,77,30.06,29.97,9,5,26,0.19
2013-3-8,42,34,30,34,30,25,97,84,57,30.13,29.93,10,4,26,0.15
2013-3-9,45,37,31,33,28,23,93,71,55,30.34,30.13,7,2,15,0.20
2013-3-10,42,36,28,34,31,27,95,84,64,30.40,30.31,4,2,9,0.01
2013-3-11,53,44,36,42,38,33,92,80,61,30.32,30.14,6,2,15,0.00
2013-3-12,57,51,42,54,48,40,97,92,82,30.15,29.72,7,2,17,0.27
2013-3-13,53,46,39,53,33,22,97,64,35,29.77,29.68,6,3,18,0.01
2013-3-14,39,34,24,26,18,9,67,52,40,29.82,29.69,7,3,21,0.00
2013-3-15,42,31,21,28,14,6,72,50,27,29.86,29.62,8,4,19,0.00
2013-3-16,41,36,30,28,16,6,72,47,25,29.86,29.65,5,2,14,0.00
2013-3-17,40,33,27,20,13,7,65,45,26,30.30,29.86,7,3,16,0.00
2013-3-18,39,30,21,28,12,2,91,49,31,30.45,30.24,5,2,12,0.00
2013-3-19,36,33,29,36,32,27,97,95,91,30.23,29.60,8,5,20,0.62
2013-3-20,40,32,26,27,24,21,92,71,49,29.80,29.68,6,3,19,0.21
2013-3-21,38,32,27,31,24,19,91,72,52,29.81,29.60,3,1,11,0.03
2013-3-22,41,35,29,29,22,18,90,62,42,29.73,29.59,5,2,14,0.00
2013-3-23,44,37,29,26,22,20,75,57,39,29.76,29.61,9,4,21,0.00
2013-3-24,48,40,32,32,26,22,76,59,42,29.80,29.71,7,2,19,0.00
2013-3-25,46,39,33,36,32,27,84,75,58,29.76,29.50,7,3,19,0.00
2013-3-26,52,43,36,32,27,21,86,55,32,29.76,29.52,5,3,13,0.00
2013-3-27,56,45,32,34,27,24,73,50,32,29.85,29.71,7,3,17,0.00
2013-3-28,48,43,38,37,35,31,90,73,52,30.00,29.85,5,2,14,0.01
2013-3-29,58,47,36,41,34,31,84,63,40,30.03,29.94,6,2,15,0.02
2013-3-30,59,48,39,35,27,16,76,48,20,30.08,29.98,5,2,13,0.00
2013-3-31,61,47,33,42,30,23,78,53,24,30.11,29.74,8,2,18,0.01
2013-4-1,63,48,37,48,38,14,96,71,36,29.77,29.48,8,4,22,0.15
2013-4-2,42,36,31,19,16,11,54,43,30,29.93,29.77,8,4,26,0.00
2013-4-3,48,38,32,21,15,11,62,40,23,30.14,29.91,9,4,21,0.00
2013-4-4,57,43,31,28,19,13,61,40,19,30.28,30.03,7,3,18,0.00
2013-4-5,62,47,39,32,28,23,71,51,24,30.04,29.61,9,4,21,0.00
2013-4-6,48,40,33,28,14,4,60,37,17,30.32,29.86,10,4,20,0.00
2013-4-7,55,44,32,42,30,22,80,59,33,30.32,29.99,9,3,25,0.00
2013-4-8,67,54,45,44,42,37,92,66,34,30.08,29.93,6,2,14,0.00
2013-4-9,73,56,48,54,46,40,94,71,41,30.08,29.84,6,2,17,0.16
2013-4-10,62,52,47,50,46,43,94,81,63,30.00,29.85,5,1,11,0.19
2013-4-11,52,48,44,48,42,30,96,82,55,30.13,29.81,4,2,11,0.05
2013-4-12,44,40,38,39,36,32,95,86,63,30.16,29.77,10,4,23,0.45
2013-4-13,53,44,37,42,38,35,95,83,55,29.91,29.74,5,2,15,0.03
2013-4-14,54,48,41,42,34,28,86,61,39,30.20,29.90,7,2,19,0.00
2013-4-15,57,47,36,41,35,30,83,66,46,30.38,30.20,7,2,14,0.00
2013-4-16,65,53,41,52,43,37,91,70,49,30.40,30.04,9,4,21,0.00
2013-4-17,68,60,52,54,39,30,85,50,26,30.32,30.04,7,3,17,0.00
2013-4-18,65,53,43,45,37,28,77,55,32,30.42,30.13,6,3,19,0.00
2013-4-19,75,64,54,64,59,45,97,83,61,30.13,29.64,9,4,24,0.00
2013-4-20,67,55,46,64,43,26,94,66,39,30.20,29.58,9,4,22,0.48
2013-4-21,55,44,36,34,25,20,67,48,27,30.67,30.20,7,3,20,0.00
2013-4-22,51,44,36,37,32,24,84,66,36,30.75,30.59,8,4,19,0.00
2013-4-23,43,42,40,42,39,33,96,89,72,30.58,30.11,5,3,14,0.04
2013-4-24,75,56,43,54,46,42,96,75,36,30.10,29.77,8,3,17,0.01
2013-4-25,66,57,49,54,38,25,92,55,22,30.25,29.81,7,3,17,0.03
2013-4-26,58,50,44,43,37,33,86,62,44,30.41,30.25,6,2,17,0.00
2013-4-27,64,53,41,43,38,34,92,61,35,30.41,30.28,5,2,13,0.00
2013-4-28,68,56,43,44,38,29,85,53,31,30.33,30.20,7,2,15,0.00
2013-4-29,70,59,49,48,40,20,84,53,21,30.26,30.16,6,2,14,0.00
2013-4-30,68,57,47,40,32,14,72,42,13,30.35,30.24,5,1,11,0.00
2013-5-1,68,56,43,43,37,31,86,53,26,30.45,30.36,4,1,11,0.00
2013-5-2,77,57,47,49,43,37,85,62,27,30.48,30.34,8,2,17,0.00
2013-5-3,60,51,44,47,42,40,88,72,56,30.51,30.36,5,2,13,0.00
2013-5-4,57,50,42,47,42,39,92,75,58,30.36,30.30,5,2,14,0.00
2013-5-5,59,50,39,44,41,37,95,74,52,30.32,30.25,4,2,13,0.00
2013-5-6,64,52,41,51,46,39,97,82,56,30.28,30.15,4,1,12,0.00
2013-5-7,75,63,47,60,53,44,94,72,49,30.17,30.07,5,1,12,0.00
2013-5-8,73,62,55,63,58,54,96,87,70,30.18,30.03,5,2,14,0.05
2013-5-9,69,60,57,63,59,56,99,95,78,30.04,29.88,3,0,8,0.23
2013-5-10,80,66,57,62,58,56,99,80,47,29.94,29.87,4,1,10,0.09
2013-5-11,73,65,60,64,60,56,94,84,69,29.89,29.67,8,3,21,0.02
2013-5-12,72,63,53,61,53,32,96,73,39,29.80,29.54,6,2,19,0.01
2013-5-13,60,52,45,36,32,28,68,48,32,30.02,29.80,7,3,18,0.01
2013-5-14,60,52,42,37,33,29,72,50,32,30.04,29.96,6,2,14,0.00
2013-5-15,67,54,41,53,41,32,90,63,31,30.05,29.67,7,2,22,0.00
2013-5-16,82,68,49,53,44,34,96,49,21,29.78,29.60,8,2,21,0.00
2013-5-17,70,61,54,47,43,38,70,53,33,30.20,29.79,6,2,15,0.00
2013-5-18,72,62,49,51,46,38,87,60,30,30.29,30.20,4,1,12,0.00
2013-5-19,72,58,51,56,52,48,96,80,49,30.33,30.21,5,1,11,0.09
2013-5-20,82,68,57,66,61,56,98,81,55,30.21,29.88,4,1,17,0.05
2013-5-21,78,62,52,66,58,51,97,88,65,30.01,29.85,6,2,15,0.04
2013-5-22,67,57,52,61,54,50,97,91,77,30.04,29.88,5,1,15,0.10
2013-5-23,77,65,55,70,62,55,99,90,73,29.92,29.79,8,2,20,0.12
2013-5-24,72,64,51,68,62,50,97,94,79,29.81,29.63,5,2,13,0.13
2013-5-25,53,48,43,52,47,40,98,95,90,29.80,29.68,5,3,17,0.06
2013-5-26,60,50,41,45,41,39,94,73,49,30.09,29.70,7,3,21,0.05
2013-5-27,73,59,42,49,41,36,92,56,26,30.16,30.05,6,2,25,0.02
2013-5-28,73,61,48,54,48,40,92,65,36,30.22,30.14,4,1,11,0.00
2013-5-29,71,64,60,65,61,54,97,90,76,30.17,29.98,3,1,10,0.01
2013-5-30,89,77,63,70,67,62,98,75,50,30.06,29.97,5,2,15,0.00
2013-5-31,96,83,68,71,67,64,91,62,37,30.06,29.90,6,2,16,0.00
2013-6-1,94,82,70,70,67,64,82,61,39,29.95,29.82,7,3,18,0.00
2013-6-2,91,80,70,71,67,65,87,68,43,29.85,29.69,11,5,27,0.00
2013-6-3,78,71,64,69,64,46,95,80,49,29.83,29.73,5,2,11,0.00
2013-6-4,73,64,53,51,46,42,70,53,39,30.08,29.81,5,2,14,0.00
2013-6-5,76,65,55,53,48,44,76,56,36,30.17,30.07,4,2,12,0.00
2013-6-6,76,66,58,57,51,44,79,59,37,30.17,30.08,4,2,12,0.00
2013-6-7,62,57,55,58,55,51,98,93,79,30.10,29.80,4,2,13,0.00
2013-6-8,79,65,54,66,59,54,99,84,61,29.98,29.59,5,2,16,0.00
2013-6-9,81,70,58,60,58,55,95,67,44,30.14,29.98,4,1,14,0.00
2013-6-10,70,64,59,60,58,56,97,81,62,30.19,30.01,3,1,10,0.00
2013-6-11,64,59,57,60,58,56,99,94,84,30.01,29.55,5,2,14,0.01
2013-6-12,73,64,57,60,57,55,99,80,56,29.79,29.54,6,2,19,0.00
2013-6-13,69,60,54,59,55,52,96,84,55,29.80,29.66,3,1,10,0.00
2013-6-14,75,62,53,58,55,52,98,80,52,29.74,29.62,5,2,12,0.00
2013-6-15,80,70,58,56,50,42,88,53,27,29.91,29.74,4,1,18,0.00
2013-6-16,77,69,57,64,56,49,83,64,42,29.92,29.69,6,2,14,0.00
2013-6-17,88,71,61,66,62,56,96,74,36,29.88,29.75,6,2,19,0.00
2013-6-18,77,65,60,65,61,58,97,89,65,29.93,29.86,5,1,14,0.00
2013-6-19,75,66,57,59,54,48,97,69,42,30.12,29.89,4,1,13,0.00
2013-6-20,81,69,55,58,53,46,91,60,35,30.24,30.12,5,1,10,0.00
2013-6-21,86,73,60,66,60,55,82,64,38,30.23,30.16,4,2,11,0.00
2013-6-22,86,75,65,65,61,58,77,63,43,30.20,30.09,6,3,15,0.00
2013-6-23,92,78,67,74,66,58,79,66,53,30.14,29.96,8,3,20,0.00
2013-6-24,95,82,72,74,71,69,93,73,47,29.99,29.84,7,2,15,0.00
2013-6-25,93,81,71,72,70,67,94,70,45,29.90,29.69,8,2,18,0.00
2013-6-26,85,77,71,76,70,68,93,80,61,29.83,29.69,4,1,10,0.00
2013-6-27,72,67,63,68,65,62,98,94,83,29.85,29.74,3,1,11,0.00
2013-6-28,84,72,62,74,69,61,100,90,67,29.75,29.47,7,3,22,0.00
2013-6-29,85,77,72,72,70,66,95,81,59,29.70,29.49,8,3,18,0.00
2013-6-30,87,78,71,75,71,69,94,81,63,29.91,29.70,6,2,17,0.00
2013-7-1,83,76,72,77,73,71,96,90,77,30.06,29.91,4,2,12,0.00
2013-7-2,85,75,64,75,70,62,93,86,69,30.19,30.05,5,2,14,0.00
2013-7-3,91,78,63,75,70,61,95,79,56,30.18,30.10,7,3,19,0.00
2013-7-4,94,84,74,76,74,72,95,74,52,30.18,30.06,7,3,17,0.00
2013-7-5,95,86,78,77,74,73,85,70,51,30.13,30.00,6,3,16,0.00
2013-7-6,93,85,77,75,73,65,88,69,50,30.05,29.94,5,2,13,0.00
2013-7-7,94,82,73,76,71,64,85,69,52,29.99,29.87,4,1,11,0.01
2013-7-8,85,78,70,76,72,66,93,82,67,30.04,29.88,4,1,10,0.00
2013-7-9,74,70,66,68,66,64,97,88,81,30.09,30.02,4,1,7,0.00
2013-7-13,79,72,67,71,67,63,96,86,75,30.29,30.18,3,1,8,0.02
2013-7-14,94,81,71,75,72,70,99,78,48,30.28,30.18,4,1,13,0.00
2013-7-15,95,84,74,75,73,70,92,71,49,30.18,30.06,4,1,12,0.00
2013-7-16,96,84,74,75,70,66,86,65,40,30.14,30.08,4,1,11,0.00
2013-7-17,97,85,75,75,72,67,89,66,39,30.15,29.97,5,2,13,0.00
2013-7-18,93,84,78,76,73,69,85,70,48,29.98,29.92,5,2,14,0.00
2013-7-19,99,88,78,79,75,71,91,69,43,29.92,29.68,9,4,24,0.00
2013-7-20,96,87,79,78,74,65,86,68,47,29.77,29.61,6,2,18,0.00
2013-7-21,82,76,72,69,66,62,89,71,54,29.97,29.77,6,1,13,0.01
2013-7-22,83,75,70,71,69,66,95,82,61,29.99,29.87,4,1,11,0.00
2013-7-23,82,74,70,77,72,68,99,95,82,29.87,29.52,5,1,15,0.35
2013-7-24,86,78,68,74,69,56,99,77,54,29.93,29.56,4,1,14,0.05
2013-7-25,68,62,60,60,56,51,97,80,64,30.08,29.93,5,2,14,0.01
2013-7-26,72,66,61,69,64,60,98,94,82,30.04,29.90,4,2,15,0.02
2013-7-27,85,73,61,68,64,59,96,76,48,30.03,29.96,5,2,13,0.02
2013-7-28,82,73,68,73,69,66,96,88,73,30.00,29.94,3,1,9,0.01
2013-7-29,85,74,69,73,69,66,97,85,64,30.01,29.94,6,1,17,0.01
2013-7-30,84,74,63,69,62,56,98,68,40,30.07,30.00,4,1,11,0.01
2013-7-31,84,74,64,65,61,55,87,65,40,30.11,30.01,3,1,9,0.01
2013-8-1,83,73,66,66,64,62,91,73,51,30.03,29.86,7,2,16,0.00
2013-8-2,84,74,65,69,64,58,98,74,42,29.87,29.76,5,1,15,0.00
2013-8-3,80,73,67,66,64,62,90,74,54,29.84,29.75,7,2,16,0.01
2013-8-4,82,71,62,63,58,56,84,66,43,29.86,29.74,5,1,14,0.00
2013-8-5,78,68,59,55,50,42,81,56,30,30.03,29.86,5,2,18,0.00
2013-8-6,79,68,56,58,52,49,84,59,40,30.13,30.03,3,1,9,0.00
2013-8-7,82,71,60,62,56,50,90,63,37,30.17,30.09,6,2,14,0.00
2013-8-8,83,73,67,72,67,55,92,80,65,30.12,29.98,6,2,14,0.00
2013-8-9,76,74,72,75,72,70,98,95,89,30.01,29.73,6,2,16,0.01
2013-8-10,85,76,67,73,64,56,98,69,44,29.99,29.77,4,2,15,0.00
2013-8-11,80,71,58,60,56,52,90,63,42,30.06,29.98,4,1,13,0.00
2013-8-12,84,73,63,64,60,55,89,65,41,30.01,29.90,5,1,12,0.00
2013-8-13,77,71,68,68,65,62,87,80,62,29.90,29.67,3,1,9,0.00
2013-8-14,76,69,63,65,56,52,93,66,46,29.94,29.64,6,2,19,0.01
2013-8-15,79,68,57,56,53,49,86,62,38,30.09,29.94,5,1,14,0.00
2013-8-16,81,70,58,59,56,52,86,63,38,30.17,30.09,4,1,12,0.00
2013-8-17,80,71,61,62,59,56,84,67,47,30.25,30.17,4,1,10,0.00
2013-8-18,82,72,64,64,60,56,89,67,43,30.25,30.06,4,1,9,0.00
2013-8-19,83,73,62,64,61,58,92,68,46,30.06,29.93,4,2,13,0.00
2013-8-20,88,77,67,66,63,59,83,62,39,30.06,29.96,3,1,9,0.00
2013-8-21,90,78,66,67,65,62,88,65,43,30.12,30.00,4,1,12,0.00
2013-8-22,88,77,68,73,68,64,91,75,50,30.01,29.80,7,3,16,0.00
2013-8-23,82,74,66,70,62,52,92,67,43,30.11,29.80,4,2,13,0.00
2013-8-24,77,68,58,54,49,43,77,54,30,30.31,30.11,4,1,13,0.00
2013-8-25,84,71,57,58,53,48,85,56,30,30.34,30.17,5,1,12,0.00
2013-8-26,83,74,66,68,63,58,83,70,55,30.17,29.85,6,2,22,0.00
2013-8-27,84,75,70,71,68,66,96,81,62,29.88,29.81,3,1,8,0.01
2013-8-28,84,72,65,70,66,64,95,83,58,29.97,29.84,4,1,10,0.00
2013-8-29,67,66,64,66,62,59,95,90,84,30.06,29.94,6,2,13,0.00
2013-8-30,84,72,63,69,64,59,89,77,56,30.01,29.80,5,2,13,0.00
2013-8-31,82,76,70,75,72,68,95,87,76,29.82,29.76,6,2,14,0.02
2013-9-1,80,74,71,76,72,68,97,92,81,29.86,29.77,5,1,12,0.28
2013-9-2,84,76,72,76,73,70,97,90,72,29.85,29.69,6,1,18,0.02
2013-9-3,83,75,67,73,69,60,97,82,63,29.79,29.67,6,2,15,0.01
2013-9-4,82,71,61,61,58,56,89,66,42,29.90,29.78,5,2,14,0.01
2013-9-5,72,65,56,63,57,42,92,77,35,30.13,29.84,4,1,10,0.00
2013-9-6,70,60,49,48,44,40,83,58,36,30.23,30.08,4,1,10,0.00
2013-9-7,81,66,52,58,51,46,83,61,36,30.08,29.83,6,2,13,0.01
2013-9-8,77,67,55,63,53,41,88,64,36,30.08,29.72,6,2,19,0.00
2013-9-9,71,60,48,52,46,41,81,61,39,30.22,30.08,6,2,15,0.00
2013-9-10,76,68,58,71,63,52,94,84,75,30.15,30.01,8,2,17,0.06
2013-9-11,97,82,70,78,72,67,98,76,45,30.05,29.91,6,2,16,0.00
2013-9-12,89,79,68,75,71,67,96,79,58,29.94,29.65,9,3,21,0.11
2013-9-13,80,70,61,69,66,56,98,86,61,29.73,29.54,4,1,11,0.28
2013-9-14,68,62,56,56,54,52,88,75,63,30.04,29.73,3,1,12,0.01
2013-9-15,73,62,51,54,51,47,93,70,43,30.15,30.03,5,1,12,0.00
2013-9-16,70,60,51,56,51,41,85,74,57,30.24,30.00,5,2,19,0.01
2013-9-17,65,54,43,46,41,37,82,62,42,30.41,30.24,5,2,14,0.01
2013-9-18,75,59,45,51,46,42,92,65,32,30.31,30.12,5,1,11,0.01
2013-9-19,80,65,50,56,53,48,91,68,37,30.12,30.01,3,1,7,0.01
2013-9-20,80,66,53,60,56,52,94,74,45,30.07,29.98,3,1,9,0.01
2013-9-21,77,67,57,67,61,55,97,82,58,30.01,29.71,9,3,22,0.00
2013-9-22,72,66,55,68,58,47,96,77,50,29.81,29.59,8,2,23,0.01
2013-9-23,65,55,48,47,44,41,81,66,50,29.99,29.81,5,2,15,0.01
2013-9-24,68,56,45,47,44,40,86,66,43,29.98,29.80,5,2,15,0.00
2013-9-25,67,57,48,51,48,44,89,73,55,29.97,29.87,4,1,11,0.00
2013-9-26,67,60,55,53,50,47,84,71,53,30.11,29.97,5,1,11,0.00
2013-9-27,67,60,54,55,52,50,88,75,58,30.25,30.11,4,1,10,0.00
2013-9-28,74,60,51,58,54,49,95,80,52,30.31,30.24,4,1,10,0.00
2013-9-29,68,56,49,57,51,46,99,85,46,30.25,30.11,3,1,10,0.00
2013-9-30,69,57,50,55,52,49,99,84,52,30.12,29.96,3,0,8,0.00
2013-10-1,78,63,50,56,53,48,96,73,38,29.96,29.83,4,1,12,0.00
2013-10-2,82,68,57,63,59,54,92,73,52,29.93,29.80,5,1,17,0.00
2013-10-3,79,67,55,58,52,44,91,63,31,30.06,29.93,4,1,10,0.00
2013-10-4,68,61,55,60,56,51,91,82,71,30.07,30.01,2,0,6,0.00
2013-10-5,70,64,60,59,58,56,95,83,65,30.11,30.04,3,0,7,0.00
2013-10-6,62,58,56,59,57,54,98,95,82,30.22,30.10,4,1,9,0.00
2013-10-7,79,68,58,72,65,56,100,90,71,30.12,29.80,8,3,30,0.00
2013-10-8,67,59,50,56,47,40,81,64,40,30.36,29.88,5,2,14,0.00
2013-10-9,62,53,44,48,45,42,93,76,55,30.47,30.36,4,1,12,0.00
2013-10-10,63,54,45,54,50,44,96,87,71,30.36,30.17,3,1,8,0.01
2013-10-11,71,59,51,57,50,29,98,77,21,30.17,30.08,3,1,10,0.00
2013-10-12,61,56,50,58,53,49,97,89,80,30.38,30.14,6,2,14,0.00
2013-10-13,61,53,45,52,48,44,97,83,60,30.44,30.36,4,1,12,0.00
2013-10-14,66,52,40,52,45,39,98,79,38,30.40,30.24,3,0,7,0.00
2013-10-15,68,58,50,56,52,48,95,81,61,30.25,30.17,3,1,9,0.00
2013-10-16,63,56,51,57,54,50,99,90,79,30.17,29.90,2,0,6,0.00
2013-10-17,73,63,54,62,58,53,98,86,65,29.91,29.71,5,1,13,0.01
2013-10-18,69,63,54,62,53,42,96,72,48,29.89,29.60,6,2,17,0.00
2013-10-19,68,57,44,48,45,41,88,66,42,29.96,29.74,4,1,13,0.00
2013-10-20,63,55,45,52,42,34,96,65,36,30.01,29.68,6,2,20,0.00
2013-10-21,68,54,41,46,42,37,90,64,40,30.10,29.99,4,1,12,0.00
2013-10-22,68,56,44,53,47,40,94,74,52,29.99,29.69,6,1,14,0.00
2013-10-23,52,48,41,40,36,33,86,65,49,29.79,29.58,3,0,8,0.00
2013-10-24,55,47,40,37,32,26,78,57,36,29.87,29.62,8,2,20,0.00
2013-10-25,52,43,35,36,31,28,85,64,43,30.14,29.87,4,1,14,0.00
2013-10-26,56,45,33,38,32,27,88,63,33,30.15,29.86,9,3,20,0.00
2013-10-27,55,49,43,42,36,31,87,63,43,30.05,29.80,6,2,20,0.03
2013-10-28,60,47,36,38,33,26,86,61,41,30.34,30.04,7,2,20,0.00
2013-10-29,51,41,34,36,30,24,88,65,36,30.43,30.33,4,1,9,0.00
2013-10-30,53,42,37,44,38,33,95,84,65,30.36,30.18,2,0,7,0.04
2013-10-31,64,51,36,60,48,35,97,92,81,30.23,29.79,7,1,20,0.02
2013-11-1,71,66,59,64,59,55,95,80,64,29.78,29.44,13,6,31,0.03
2013-11-2,68,58,50,55,47,42,90,70,40,29.72,29.57,4,1,10,0.00
2013-11-3,52,42,34,49,32,18,91,67,42,30.41,29.70,4,2,13,0.00
2013-11-4,44,36,30,26,22,16,80,58,34,30.69,30.41,4,1,11,0.03
2013-11-5,51,40,29,37,30,23,82,67,47,30.71,30.50,3,0,9,0.00
2013-11-6,62,52,42,51,43,34,87,72,52,30.51,30.03,7,2,17,0.00
2013-11-7,67,56,42,59,51,34,93,85,69,30.03,29.66,8,2,20,0.21
2013-11-8,50,41,35,36,29,24,78,62,48,30.08,29.80,7,2,19,0.00
2013-11-9,46,41,34,31,26,23,71,56,39,30.20,30.03,6,2,16,0.00
2013-11-10,57,48,43,46,38,31,94,70,52,30.03,29.72,5,2,15,0.06
2013-11-11,53,46,40,34,30,25,69,54,35,30.09,29.83,6,3,16,0.00
2013-11-12,49,38,30,40,28,18,90,67,54,30.17,29.87,7,3,21,0.12
2013-11-22,47,45,42,46,42,31,98,90,67,30.36,29.80,3,0,7,0.23
2013-11-23,48,42,31,47,29,18,97,61,36,29.89,29.76,8,4,20,0.00
2013-11-24,31,26,22,19,6,-2,69,44,27,30.18,29.77,12,6,32,0.00
2013-11-25,34,27,18,19,5,-4,58,40,20,30.36,30.18,5,3,13,0.00
2013-11-26,44,38,32,43,25,18,96,61,46,30.32,30.03,8,2,16,0.08
2013-11-27,63,53,39,62,52,35,99,95,84,30.02,29.19,9,4,26,0.63
2013-11-28,39,33,26,35,19,9,86,58,36,30.42,29.43,9,4,25,0.05
2013-11-29,35,28,23,18,14,8,70,54,37,30.74,30.42,5,2,11,0.05
2013-11-30,35,28,19,26,17,10,74,64,53,30.78,30.43,3,1,9,0.06
2013-12-1,39,37,35,38,34,26,97,89,71,30.42,29.99,3,1,8,0.31
2013-12-2,40,39,37,40,38,36,98,97,96,30.00,29.91,3,1,8,0.35
2013-12-3,50,40,36,39,36,32,97,85,58,29.94,29.83,4,2,9,0.14
2013-12-4,44,38,33,33,30,28,90,75,54,30.19,29.93,5,1,14,0.01
2013-12-5,51,44,33,49,40,29,97,89,84,30.20,29.90,3,0,8,0.00
2013-12-6,57,50,35,56,46,33,98,87,58,30.13,29.84,5,2,14,0.06
2013-12-7,41,35,30,35,28,22,95,78,57,30.44,30.07,7,2,16,0.12
2013-12-8,32,30,25,22,18,16,74,63,53,30.59,30.44,3,1,9,0.00
2013-12-9,41,35,27,40,33,17,97,94,57,30.49,29.87,5,1,12,0.39
2013-12-10,36,33,27,34,30,17,97,89,64,29.99,29.77,5,2,16,0.02
2013-12-11,33,28,24,21,20,18,80,72,56,30.21,29.98,7,3,20,0.00
2013-12-12,27,23,18,19,10,3,78,57,36,30.27,30.06,7,2,18,0.00
2013-12-13,30,23,16,19,13,3,76,64,52,30.39,29.99,7,3,19,0.01
2013-12-14,30,18,12,29,9,-2,96,68,49,30.61,30.14,6,3,13,0.00
2013-12-15,36,29,23,35,28,22,99,94,82,30.14,29.41,8,2,21,0.00
2013-12-16,29,26,20,24,16,10,88,68,50,30.20,29.73,6,1,20,0.00
2013-12-17,21,16,8,20,10,2,93,78,56,30.29,29.94,6,2,14,0.00
2013-12-18,35,27,18,24,21,15,92,79,60,30.06,29.86,6,3,15,0.01
2013-12-19,44,35,26,30,26,21,83,70,53,30.10,29.94,10,2,22,0.17
2013-12-20,54,43,33,39,34,28,87,71,53,30.11,29.89,6,1,15,0.34
2013-12-21,58,50,43,49,44,36,90,80,70,29.94,29.84,5,2,11,0.16
2013-12-22,55,43,36,53,42,35,98,95,89,30.02,29.78,7,1,20,0.00
2013-12-23,38,35,33,38,34,33,98,98,97,30.08,29.94,4,1,9,0.06
2013-12-24,38,34,28,38,24,16,98,68,51,30.18,30.03,6,2,15,0.05
2013-12-25,28,21,16,17,8,3,69,56,45,30.54,30.18,7,2,17,0.00
2013-12-26,36,28,21,33,23,10,92,82,63,30.50,30.07,4,1,10,0.00
2013-12-27,35,30,25,24,22,20,88,74,60,30.26,30.17,4,2,14,0.01
2013-12-28,48,36,26,30,27,22,86,70,48,30.20,29.97,8,2,20,0.16
2013-12-29,44,38,31,40,34,27,97,83,68,30.02,29.38,7,1,17,0.27
2013-12-30,43,34,20,38,26,11,96,73,46,30.15,29.49,7,3,18,0.23
2013-12-31,27,21,15,17,8,-1,75,58,43,30.17,30.02,5,2,11,0.00
2014-1-1,29,24,18,14,10,8,67,57,45,30.37,30.17,5,2,14,0.00
2014-1-2,23,14,3,17,10,0,89,86,62,30.35,29.85,7,4,21,0.00